sensor_id;sensor_type;location;lat;lon;timestamp;P1;durP1;ratioP1;P2;durP2;ratioP2
21103;SDS011;10710;53.398;-1.514;2023-06-19T00:02:43;10.90;;;2.60;;
21103;SDS011;10710;53.398;-1.514;2023-06-19T00:05:28;4.40;;;2.50;;
21103;SDS011;10710;53.398;-1.514;2023-06-19T00:08:24;4.17;;;2.87;;
21103;SDS011;10710;53.398;-1.514;2023-06-19T00:11:15;4.80;;;2.28;;
21103;SDS011;10710;53.398;-1.514;2023-06-19T00:14:08;5.57;;;2.92;;
21103;SDS011;10710;53.398;-1.514;2023-06-19T00:16:53;4.18;;;2.75;;
21103;SDS011;10710;53.398;-1.514;2023-06-19T00:19:38;5.38;;;2.50;;
21103;SDS011;10710;53.398;-1.514;2023-06-19T00:22:22;4.47;;;2.30;;
21103;SDS011;10710;53.398;-1.514;2023-06-19T00:25:09;5.30;;;2.88;;
21103;SDS011;10710;53.398;-1.514;2023-06-19T00:27:54;5.10;;;2.30;;
21103;SDS011;10710;53.398;-1.514;2023-06-19T00:30:39;6.85;;;2.88;;
21103;SDS011;10710;53.398;-1.514;2023-06-19T00:33:24;4.83;;;2.83;;
21103;SDS011;10710;53.398;-1.514;2023-06-19T00:36:09;5.38;;;2.70;;
21103;SDS011;10710;53.398;-1.514;2023-06-19T00:38:54;4.70;;;2.80;;
21103;SDS011;10710;53.398;-1.514;2023-06-19T00:41:40;3.80;;;2.50;;
21103;SDS011;10710;53.398;-1.514;2023-06-19T00:44:25;4.15;;;2.70;;
21103;SDS011;10710;53.398;-1.514;2023-06-19T00:47:09;6.75;;;2.92;;
21103;SDS011;10710;53.398;-1.514;2023-06-19T00:49:54;8.23;;;2.90;;
21103;SDS011;10710;53.398;-1.514;2023-06-19T00:52:39;5.10;;;3.00;;
21103;SDS011;10710;53.398;-1.514;2023-06-19T00:55:24;4.85;;;3.10;;
21103;SDS011;10710;53.398;-1.514;2023-06-19T00:58:13;5.30;;;3.03;;
21103;SDS011;10710;53.398;-1.514;2023-06-19T01:00:58;5.05;;;3.03;;
21103;SDS011;10710;53.398;-1.514;2023-06-19T01:03:43;6.28;;;3.33;;
21103;SDS011;10710;53.398;-1.514;2023-06-19T01:06:27;6.93;;;3.08;;
21103;SDS011;10710;53.398;-1.514;2023-06-19T01:09:23;4.90;;;3.17;;
21103;SDS011;10710;53.398;-1.514;2023-06-19T01:12:22;7.50;;;3.40;;
21103;SDS011;10710;53.398;-1.514;2023-06-19T01:15:09;8.30;;;3.75;;
21103;SDS011;10710;53.398;-1.514;2023-06-19T01:17:55;5.97;;;3.10;;
21103;SDS011;10710;53.398;-1.514;2023-06-19T01:20:41;5.25;;;3.10;;
21103;SDS011;10710;53.398;-1.514;2023-06-19T01:23:26;4.53;;;2.90;;
21103;SDS011;10710;53.398;-1.514;2023-06-19T01:26:11;7.10;;;2.90;;
21103;SDS011;10710;53.398;-1.514;2023-06-19T01:28:56;5.85;;;2.90;;
21103;SDS011;10710;53.398;-1.514;2023-06-19T01:31:46;3.90;;;2.53;;
21103;SDS011;10710;53.398;-1.514;2023-06-19T01:34:42;4.97;;;2.90;;
21103;SDS011;10710;53.398;-1.514;2023-06-19T01:37:27;7.20;;;3.15;;
21103;SDS011;10710;53.398;-1.514;2023-06-19T01:40:13;5.38;;;2.90;;
21103;SDS011;10710;53.398;-1.514;2023-06-19T01:42:59;6.53;;;3.47;;
21103;SDS011;10710;53.398;-1.514;2023-06-19T01:45:48;8.82;;;3.38;;
21103;SDS011;10710;53.398;-1.514;2023-06-19T01:48:34;7.65;;;3.25;;
21103;SDS011;10710;53.398;-1.514;2023-06-19T01:51:20;6.87;;;3.90;;
21103;SDS011;10710;53.398;-1.514;2023-06-19T01:54:05;7.60;;;4.13;;
21103;SDS011;10710;53.398;-1.514;2023-06-19T01:56:50;6.20;;;3.72;;
21103;SDS011;10710;53.398;-1.514;2023-06-19T01:59:35;12.00;;;3.93;;
21103;SDS011;10710;53.398;-1.514;2023-06-19T02:02:19;10.18;;;4.10;;
21103;SDS011;10710;53.398;-1.514;2023-06-19T02:05:04;7.82;;;4.13;;
21103;SDS011;10710;53.398;-1.514;2023-06-19T02:07:49;6.43;;;4.03;;
21103;SDS011;10710;53.398;-1.514;2023-06-19T02:10:33;7.55;;;4.22;;
21103;SDS011;10710;53.398;-1.514;2023-06-19T02:13:18;8.80;;;4.30;;
21103;SDS011;10710;53.398;-1.514;2023-06-19T02:16:03;9.60;;;4.70;;
21103;SDS011;10710;53.398;-1.514;2023-06-19T02:18:47;6.88;;;4.10;;
21103;SDS011;10710;53.398;-1.514;2023-06-19T02:21:32;9.05;;;4.25;;
21103;SDS011;10710;53.398;-1.514;2023-06-19T02:24:16;7.35;;;3.78;;
21103;SDS011;10710;53.398;-1.514;2023-06-19T02:27:01;8.73;;;4.40;;
21103;SDS011;10710;53.398;-1.514;2023-06-19T02:29:46;7.32;;;4.53;;
21103;SDS011;10710;53.398;-1.514;2023-06-19T02:32:31;7.28;;;4.00;;
21103;SDS011;10710;53.398;-1.514;2023-06-19T02:35:15;8.27;;;4.22;;
21103;SDS011;10710;53.398;-1.514;2023-06-19T02:38:01;8.30;;;4.90;;
21103;SDS011;10710;53.398;-1.514;2023-06-19T02:40:48;8.82;;;5.05;;
21103;SDS011;10710;53.398;-1.514;2023-06-19T02:43:32;8.05;;;4.65;;
21103;SDS011;10710;53.398;-1.514;2023-06-19T02:46:16;8.10;;;4.47;;
21103;SDS011;10710;53.398;-1.514;2023-06-19T02:49:01;6.95;;;4.68;;
21103;SDS011;10710;53.398;-1.514;2023-06-19T02:51:46;7.70;;;4.25;;
21103;SDS011;10710;53.398;-1.514;2023-06-19T02:54:30;7.38;;;4.57;;
21103;SDS011;10710;53.398;-1.514;2023-06-19T02:57:15;7.25;;;4.25;;
21103;SDS011;10710;53.398;-1.514;2023-06-19T02:59:59;5.75;;;4.03;;
21103;SDS011;10710;53.398;-1.514;2023-06-19T03:02:43;9.85;;;3.47;;
21103;SDS011;10710;53.398;-1.514;2023-06-19T03:05:27;5.55;;;3.08;;
21103;SDS011;10710;53.398;-1.514;2023-06-19T03:08:12;6.85;;;3.60;;
21103;SDS011;10710;53.398;-1.514;2023-06-19T03:10:56;4.32;;;2.92;;
21103;SDS011;10710;53.398;-1.514;2023-06-19T03:13:47;5.18;;;3.25;;
21103;SDS011;10710;53.398;-1.514;2023-06-19T03:16:34;7.30;;;3.08;;
21103;SDS011;10710;53.398;-1.514;2023-06-19T03:19:19;6.82;;;3.15;;
21103;SDS011;10710;53.398;-1.514;2023-06-19T03:22:03;4.40;;;2.72;;
21103;SDS011;10710;53.398;-1.514;2023-06-19T03:24:47;8.25;;;3.28;;
21103;SDS011;10710;53.398;-1.514;2023-06-19T03:27:32;5.40;;;2.93;;
21103;SDS011;10710;53.398;-1.514;2023-06-19T03:30:16;5.25;;;2.63;;
21103;SDS011;10710;53.398;-1.514;2023-06-19T03:33:02;7.65;;;3.65;;
21103;SDS011;10710;53.398;-1.514;2023-06-19T03:35:46;6.80;;;3.10;;
21103;SDS011;10710;53.398;-1.514;2023-06-19T03:38:30;7.25;;;3.17;;
21103;SDS011;10710;53.398;-1.514;2023-06-19T03:41:14;5.07;;;3.10;;
21103;SDS011;10710;53.398;-1.514;2023-06-19T03:43:58;5.25;;;3.22;;
21103;SDS011;10710;53.398;-1.514;2023-06-19T03:46:42;5.20;;;3.53;;
21103;SDS011;10710;53.398;-1.514;2023-06-19T03:49:26;9.00;;;3.67;;
21103;SDS011;10710;53.398;-1.514;2023-06-19T03:52:10;5.85;;;3.42;;
21103;SDS011;10710;53.398;-1.514;2023-06-19T03:54:54;7.28;;;3.85;;
21103;SDS011;10710;53.398;-1.514;2023-06-19T03:57:39;6.45;;;3.65;;
21103;SDS011;10710;53.398;-1.514;2023-06-19T04:00:23;6.80;;;3.60;;
21103;SDS011;10710;53.398;-1.514;2023-06-19T04:03:08;8.90;;;3.30;;
21103;SDS011;10710;53.398;-1.514;2023-06-19T04:05:53;5.95;;;3.38;;
21103;SDS011;10710;53.398;-1.514;2023-06-19T04:08:37;5.10;;;2.85;;
21103;SDS011;10710;53.398;-1.514;2023-06-19T04:11:21;5.57;;;3.10;;
21103;SDS011;10710;53.398;-1.514;2023-06-19T04:14:06;6.95;;;3.00;;
21103;SDS011;10710;53.398;-1.514;2023-06-19T04:16:50;5.93;;;3.30;;
21103;SDS011;10710;53.398;-1.514;2023-06-19T04:19:34;5.55;;;3.30;;
21103;SDS011;10710;53.398;-1.514;2023-06-19T04:22:18;5.28;;;2.70;;
21103;SDS011;10710;53.398;-1.514;2023-06-19T04:25:02;4.40;;;3.20;;
21103;SDS011;10710;53.398;-1.514;2023-06-19T04:27:47;6.45;;;2.97;;
21103;SDS011;10710;53.398;-1.514;2023-06-19T04:30:32;7.28;;;4.07;;
21103;SDS011;10710;53.398;-1.514;2023-06-19T04:33:16;5.77;;;3.20;;
21103;SDS011;10710;53.398;-1.514;2023-06-19T04:36:04;5.70;;;3.67;;
21103;SDS011;10710;53.398;-1.514;2023-06-19T04:38:49;6.63;;;3.63;;
21103;SDS011;10710;53.398;-1.514;2023-06-19T04:41:35;7.30;;;3.30;;
21103;SDS011;10710;53.398;-1.514;2023-06-19T04:44:22;6.57;;;3.53;;
21103;SDS011;10710;53.398;-1.514;2023-06-19T04:47:06;10.65;;;3.50;;
21103;SDS011;10710;53.398;-1.514;2023-06-19T04:49:50;5.40;;;3.22;;
21103;SDS011;10710;53.398;-1.514;2023-06-19T04:52:35;6.47;;;3.35;;
21103;SDS011;10710;53.398;-1.514;2023-06-19T04:55:19;9.43;;;3.42;;
21103;SDS011;10710;53.398;-1.514;2023-06-19T04:58:04;6.35;;;3.55;;
21103;SDS011;10710;53.398;-1.514;2023-06-19T05:00:48;6.55;;;2.65;;
21103;SDS011;10710;53.398;-1.514;2023-06-19T05:03:36;11.00;;;3.80;;
21103;SDS011;10710;53.398;-1.514;2023-06-19T05:06:22;7.03;;;3.17;;
21103;SDS011;10710;53.398;-1.514;2023-06-19T05:09:07;6.03;;;3.13;;
21103;SDS011;10710;53.398;-1.514;2023-06-19T05:11:52;6.90;;;2.78;;
21103;SDS011;10710;53.398;-1.514;2023-06-19T05:14:36;5.30;;;3.00;;
21103;SDS011;10710;53.398;-1.514;2023-06-19T05:17:21;5.17;;;3.40;;
21103;SDS011;10710;53.398;-1.514;2023-06-19T05:27:58;6.30;;;2.70;;
21103;SDS011;10710;53.398;-1.514;2023-06-19T05:30:51;7.13;;;3.28;;
21103;SDS011;10710;53.398;-1.514;2023-06-19T05:34:18;6.68;;;3.10;;
21103;SDS011;10710;53.398;-1.514;2023-06-19T05:49:36;6.03;;;3.15;;
21103;SDS011;10710;53.398;-1.514;2023-06-19T06:00:56;6.47;;;3.55;;
21103;SDS011;10710;53.398;-1.514;2023-06-19T06:04:29;5.72;;;3.35;;
21103;SDS011;10710;53.398;-1.514;2023-06-19T06:11:42;6.53;;;3.30;;
21103;SDS011;10710;53.398;-1.514;2023-06-19T06:15:03;7.10;;;3.50;;
21103;SDS011;10710;53.398;-1.514;2023-06-19T06:28:45;7.50;;;2.95;;
21103;SDS011;10710;53.398;-1.514;2023-06-19T06:32:13;4.70;;;2.80;;
21103;SDS011;10710;53.398;-1.514;2023-06-19T06:35:06;21.48;;;8.77;;
21103;SDS011;10710;53.398;-1.514;2023-06-19T06:37:54;10.77;;;3.28;;
21103;SDS011;10710;53.398;-1.514;2023-06-19T06:44:19;9.40;;;3.58;;
21103;SDS011;10710;53.398;-1.514;2023-06-19T06:50:49;9.45;;;3.28;;
21103;SDS011;10710;53.398;-1.514;2023-06-19T06:53:52;5.70;;;3.30;;
21103;SDS011;10710;53.398;-1.514;2023-06-19T06:57:07;7.28;;;3.05;;
21103;SDS011;10710;53.398;-1.514;2023-06-19T06:59:58;5.50;;;3.03;;
21103;SDS011;10710;53.398;-1.514;2023-06-19T07:02:45;8.63;;;3.10;;
21103;SDS011;10710;53.398;-1.514;2023-06-19T07:05:35;6.20;;;3.03;;
21103;SDS011;10710;53.398;-1.514;2023-06-19T07:15:41;4.97;;;2.78;;
21103;SDS011;10710;53.398;-1.514;2023-06-19T07:18:28;7.15;;;3.08;;
21103;SDS011;10710;53.398;-1.514;2023-06-19T07:21:17;8.77;;;3.53;;
21103;SDS011;10710;53.398;-1.514;2023-06-19T07:24:02;6.68;;;2.75;;
21103;SDS011;10710;53.398;-1.514;2023-06-19T07:26:51;6.90;;;3.38;;
21103;SDS011;10710;53.398;-1.514;2023-06-19T07:30:20;7.50;;;2.85;;
21103;SDS011;10710;53.398;-1.514;2023-06-19T07:33:25;7.45;;;2.90;;
21103;SDS011;10710;53.398;-1.514;2023-06-19T07:36:09;7.47;;;2.85;;
21103;SDS011;10710;53.398;-1.514;2023-06-19T07:38:57;7.20;;;2.38;;
21103;SDS011;10710;53.398;-1.514;2023-06-19T07:41:42;5.33;;;2.97;;
21103;SDS011;10710;53.398;-1.514;2023-06-19T07:44:26;5.30;;;2.65;;
21103;SDS011;10710;53.398;-1.514;2023-06-19T07:47:10;8.68;;;3.05;;
21103;SDS011;10710;53.398;-1.514;2023-06-19T07:49:54;6.28;;;2.95;;
21103;SDS011;10710;53.398;-1.514;2023-06-19T07:52:39;4.85;;;2.70;;
21103;SDS011;10710;53.398;-1.514;2023-06-19T07:55:23;4.17;;;3.10;;
21103;SDS011;10710;53.398;-1.514;2023-06-19T07:58:07;10.45;;;2.75;;
21103;SDS011;10710;53.398;-1.514;2023-06-19T08:00:51;7.20;;;3.20;;
21103;SDS011;10710;53.398;-1.514;2023-06-19T08:03:35;9.25;;;2.78;;
21103;SDS011;10710;53.398;-1.514;2023-06-19T08:06:21;7.78;;;2.60;;
21103;SDS011;10710;53.398;-1.514;2023-06-19T08:09:05;5.20;;;2.28;;
21103;SDS011;10710;53.398;-1.514;2023-06-19T08:11:50;4.32;;;2.10;;
21103;SDS011;10710;53.398;-1.514;2023-06-19T08:14:34;5.15;;;2.63;;
21103;SDS011;10710;53.398;-1.514;2023-06-19T08:17:18;8.82;;;3.10;;
21103;SDS011;10710;53.398;-1.514;2023-06-19T08:20:03;6.22;;;2.42;;
21103;SDS011;10710;53.398;-1.514;2023-06-19T08:22:50;3.15;;;1.90;;
21103;SDS011;10710;53.398;-1.514;2023-06-19T08:25:34;9.77;;;2.88;;
21103;SDS011;10710;53.398;-1.514;2023-06-19T08:28:20;3.33;;;2.20;;
21103;SDS011;10710;53.398;-1.514;2023-06-19T08:31:05;5.80;;;2.53;;
21103;SDS011;10710;53.398;-1.514;2023-06-19T08:33:50;4.85;;;2.17;;
21103;SDS011;10710;53.398;-1.514;2023-06-19T08:36:35;5.18;;;2.38;;
21103;SDS011;10710;53.398;-1.514;2023-06-19T08:39:20;3.65;;;1.80;;
21103;SDS011;10710;53.398;-1.514;2023-06-19T08:42:06;11.20;;;2.47;;
21103;SDS011;10710;53.398;-1.514;2023-06-19T08:44:53;4.18;;;1.90;;
21103;SDS011;10710;53.398;-1.514;2023-06-19T08:47:37;4.70;;;2.67;;
21103;SDS011;10710;53.398;-1.514;2023-06-19T08:50:22;3.72;;;2.15;;
21103;SDS011;10710;53.398;-1.514;2023-06-19T08:53:06;4.45;;;2.00;;
21103;SDS011;10710;53.398;-1.514;2023-06-19T08:55:50;3.63;;;1.83;;
21103;SDS011;10710;53.398;-1.514;2023-06-19T08:58:35;3.72;;;2.22;;
21103;SDS011;10710;53.398;-1.514;2023-06-19T09:01:20;7.37;;;2.10;;
21103;SDS011;10710;53.398;-1.514;2023-06-19T09:04:08;5.38;;;1.95;;
21103;SDS011;10710;53.398;-1.514;2023-06-19T09:06:59;5.30;;;2.30;;
21103;SDS011;10710;53.398;-1.514;2023-06-19T09:09:48;3.38;;;1.95;;
21103;SDS011;10710;53.398;-1.514;2023-06-19T09:12:33;5.65;;;2.22;;
21103;SDS011;10710;53.398;-1.514;2023-06-19T09:15:17;6.90;;;2.13;;
21103;SDS011;10710;53.398;-1.514;2023-06-19T09:18:09;4.28;;;2.22;;
21103;SDS011;10710;53.398;-1.514;2023-06-19T09:20:55;6.13;;;2.30;;
21103;SDS011;10710;53.398;-1.514;2023-06-19T09:23:39;4.78;;;2.10;;
21103;SDS011;10710;53.398;-1.514;2023-06-19T09:26:24;2.55;;;1.98;;
21103;SDS011;10710;53.398;-1.514;2023-06-19T09:29:09;5.95;;;2.00;;
21103;SDS011;10710;53.398;-1.514;2023-06-19T09:31:59;3.83;;;1.92;;
21103;SDS011;10710;53.398;-1.514;2023-06-19T09:34:43;3.72;;;1.98;;
21103;SDS011;10710;53.398;-1.514;2023-06-19T09:37:28;6.60;;;2.10;;
21103;SDS011;10710;53.398;-1.514;2023-06-19T09:40:13;3.92;;;1.88;;
21103;SDS011;10710;53.398;-1.514;2023-06-19T09:42:58;3.05;;;1.90;;
21103;SDS011;10710;53.398;-1.514;2023-06-19T09:45:44;8.57;;;2.40;;
21103;SDS011;10710;53.398;-1.514;2023-06-19T09:48:32;4.60;;;1.83;;
21103;SDS011;10710;53.398;-1.514;2023-06-19T09:51:23;4.45;;;1.88;;
21103;SDS011;10710;53.398;-1.514;2023-06-19T09:54:15;4.70;;;2.10;;
21103;SDS011;10710;53.398;-1.514;2023-06-19T09:57:00;3.38;;;2.03;;
21103;SDS011;10710;53.398;-1.514;2023-06-19T09:59:50;3.93;;;2.10;;
21103;SDS011;10710;53.398;-1.514;2023-06-19T10:02:43;3.15;;;1.65;;
21103;SDS011;10710;53.398;-1.514;2023-06-19T10:05:30;2.42;;;1.45;;
21103;SDS011;10710;53.398;-1.514;2023-06-19T10:08:25;3.58;;;2.00;;
21103;SDS011;10710;53.398;-1.514;2023-06-19T10:11:14;3.78;;;1.60;;
21103;SDS011;10710;53.398;-1.514;2023-06-19T10:14:05;4.78;;;1.77;;
21103;SDS011;10710;53.398;-1.514;2023-06-19T10:16:51;4.15;;;1.58;;
21103;SDS011;10710;53.398;-1.514;2023-06-19T10:19:35;1.95;;;1.40;;
21103;SDS011;10710;53.398;-1.514;2023-06-19T10:22:20;2.25;;;1.45;;
21103;SDS011;10710;53.398;-1.514;2023-06-19T10:25:07;4.95;;;2.03;;
21103;SDS011;10710;53.398;-1.514;2023-06-19T10:27:53;3.33;;;1.85;;
21103;SDS011;10710;53.398;-1.514;2023-06-19T10:30:38;2.53;;;1.60;;
21103;SDS011;10710;53.398;-1.514;2023-06-19T10:33:26;4.03;;;1.90;;
21103;SDS011;10710;53.398;-1.514;2023-06-19T10:36:15;7.22;;;2.40;;
21103;SDS011;10710;53.398;-1.514;2023-06-19T10:39:01;3.50;;;2.05;;
21103;SDS011;10710;53.398;-1.514;2023-06-19T10:41:45;3.55;;;2.00;;
21103;SDS011;10710;53.398;-1.514;2023-06-19T10:44:29;3.38;;;2.35;;
21103;SDS011;10710;53.398;-1.514;2023-06-19T10:47:14;4.63;;;2.10;;
21103;SDS011;10710;53.398;-1.514;2023-06-19T10:49:59;5.28;;;2.13;;
21103;SDS011;10710;53.398;-1.514;2023-06-19T10:52:44;5.38;;;1.85;;
21103;SDS011;10710;53.398;-1.514;2023-06-19T10:55:29;4.25;;;2.47;;
21103;SDS011;10710;53.398;-1.514;2023-06-19T10:58:14;3.67;;;2.35;;
21103;SDS011;10710;53.398;-1.514;2023-06-19T11:00:58;4.05;;;2.20;;
21103;SDS011;10710;53.398;-1.514;2023-06-19T11:03:42;7.78;;;1.88;;
21103;SDS011;10710;53.398;-1.514;2023-06-19T11:06:27;3.77;;;2.23;;
21103;SDS011;10710;53.398;-1.514;2023-06-19T11:09:12;3.60;;;2.20;;
21103;SDS011;10710;53.398;-1.514;2023-06-19T11:11:57;3.88;;;2.10;;
21103;SDS011;10710;53.398;-1.514;2023-06-19T11:14:42;3.67;;;1.98;;
21103;SDS011;10710;53.398;-1.514;2023-06-19T11:17:26;3.35;;;2.03;;
21103;SDS011;10710;53.398;-1.514;2023-06-19T11:20:12;2.47;;;1.70;;
21103;SDS011;10710;53.398;-1.514;2023-06-19T11:22:58;2.88;;;1.80;;
21103;SDS011;10710;53.398;-1.514;2023-06-19T11:25:44;4.13;;;1.58;;
21103;SDS011;10710;53.398;-1.514;2023-06-19T11:28:28;3.92;;;2.05;;
21103;SDS011;10710;53.398;-1.514;2023-06-19T11:31:13;5.53;;;1.80;;
21103;SDS011;10710;53.398;-1.514;2023-06-19T11:33:58;2.67;;;1.80;;
21103;SDS011;10710;53.398;-1.514;2023-06-19T11:36:43;3.53;;;1.85;;
21103;SDS011;10710;53.398;-1.514;2023-06-19T11:39:28;3.93;;;2.03;;
21103;SDS011;10710;53.398;-1.514;2023-06-19T11:42:13;5.38;;;2.05;;
21103;SDS011;10710;53.398;-1.514;2023-06-19T11:45:02;5.47;;;2.00;;
21103;SDS011;10710;53.398;-1.514;2023-06-19T11:47:51;2.40;;;1.70;;
21103;SDS011;10710;53.398;-1.514;2023-06-19T11:50:35;3.63;;;1.90;;
21103;SDS011;10710;53.398;-1.514;2023-06-19T11:53:20;3.47;;;2.15;;
21103;SDS011;10710;53.398;-1.514;2023-06-19T11:56:05;4.55;;;1.98;;
21103;SDS011;10710;53.398;-1.514;2023-06-19T11:58:49;5.18;;;1.90;;
21103;SDS011;10710;53.398;-1.514;2023-06-19T12:01:34;3.72;;;1.90;;
21103;SDS011;10710;53.398;-1.514;2023-06-19T12:04:20;3.23;;;1.70;;
21103;SDS011;10710;53.398;-1.514;2023-06-19T12:07:05;3.03;;;1.77;;
21103;SDS011;10710;53.398;-1.514;2023-06-19T12:09:50;4.93;;;1.80;;
21103;SDS011;10710;53.398;-1.514;2023-06-19T12:12:36;4.05;;;1.90;;
21103;SDS011;10710;53.398;-1.514;2023-06-19T12:15:21;3.47;;;1.75;;
21103;SDS011;10710;53.398;-1.514;2023-06-19T12:18:06;3.83;;;1.83;;
21103;SDS011;10710;53.398;-1.514;2023-06-19T12:20:51;3.95;;;2.05;;
21103;SDS011;10710;53.398;-1.514;2023-06-19T12:23:35;3.45;;;1.75;;
21103;SDS011;10710;53.398;-1.514;2023-06-19T12:26:20;8.43;;;2.35;;
21103;SDS011;10710;53.398;-1.514;2023-06-19T12:29:05;2.88;;;2.05;;
21103;SDS011;10710;53.398;-1.514;2023-06-19T12:31:51;4.30;;;2.00;;
21103;SDS011;10710;53.398;-1.514;2023-06-19T12:34:35;4.20;;;2.10;;
21103;SDS011;10710;53.398;-1.514;2023-06-19T12:37:20;3.92;;;2.10;;
21103;SDS011;10710;53.398;-1.514;2023-06-19T12:40:05;2.97;;;1.90;;
21103;SDS011;10710;53.398;-1.514;2023-06-19T12:42:54;3.13;;;1.70;;
21103;SDS011;10710;53.398;-1.514;2023-06-19T12:45:39;3.08;;;2.00;;
21103;SDS011;10710;53.398;-1.514;2023-06-19T12:48:25;4.13;;;1.80;;
21103;SDS011;10710;53.398;-1.514;2023-06-19T12:51:10;3.20;;;1.92;;
21103;SDS011;10710;53.398;-1.514;2023-06-19T12:53:55;4.85;;;2.42;;
21103;SDS011;10710;53.398;-1.514;2023-06-19T12:56:39;3.53;;;2.10;;
21103;SDS011;10710;53.398;-1.514;2023-06-19T12:59:24;4.05;;;2.40;;
21103;SDS011;10710;53.398;-1.514;2023-06-19T13:02:08;3.63;;;2.50;;
21103;SDS011;10710;53.398;-1.514;2023-06-19T13:04:53;4.82;;;2.75;;
21103;SDS011;10710;53.398;-1.514;2023-06-19T13:07:37;3.25;;;2.00;;
21103;SDS011;10710;53.398;-1.514;2023-06-19T13:10:21;5.80;;;2.45;;
21103;SDS011;10710;53.398;-1.514;2023-06-19T13:13:05;5.53;;;3.70;;
21103;SDS011;10710;53.398;-1.514;2023-06-19T13:15:50;4.15;;;2.38;;
21103;SDS011;10710;53.398;-1.514;2023-06-19T13:18:35;5.13;;;2.60;;
21103;SDS011;10710;53.398;-1.514;2023-06-19T13:21:19;5.43;;;2.90;;
21103;SDS011;10710;53.398;-1.514;2023-06-19T13:24:04;6.40;;;3.40;;
21103;SDS011;10710;53.398;-1.514;2023-06-19T13:26:49;4.40;;;3.00;;
21103;SDS011;10710;53.398;-1.514;2023-06-19T13:29:33;4.97;;;2.23;;
21103;SDS011;10710;53.398;-1.514;2023-06-19T13:32:17;7.13;;;2.95;;
21103;SDS011;10710;53.398;-1.514;2023-06-19T13:35:02;10.30;;;3.85;;
21103;SDS011;10710;53.398;-1.514;2023-06-19T13:37:49;9.77;;;3.80;;
21103;SDS011;10710;53.398;-1.514;2023-06-19T13:40:33;6.25;;;3.25;;
21103;SDS011;10710;53.398;-1.514;2023-06-19T13:43:18;3.50;;;2.20;;
21103;SDS011;10710;53.398;-1.514;2023-06-19T13:46:07;5.38;;;2.92;;
21103;SDS011;10710;53.398;-1.514;2023-06-19T13:48:51;4.80;;;2.45;;
21103;SDS011;10710;53.398;-1.514;2023-06-19T13:51:36;6.70;;;2.72;;
21103;SDS011;10710;53.398;-1.514;2023-06-19T13:54:21;6.30;;;3.00;;
21103;SDS011;10710;53.398;-1.514;2023-06-19T13:57:09;5.50;;;2.53;;
21103;SDS011;10710;53.398;-1.514;2023-06-19T14:00:17;5.00;;;2.60;;
21103;SDS011;10710;53.398;-1.514;2023-06-19T14:03:23;4.22;;;2.40;;
21103;SDS011;10710;53.398;-1.514;2023-06-19T14:06:11;4.93;;;2.60;;
21103;SDS011;10710;53.398;-1.514;2023-06-19T14:09:29;5.18;;;2.53;;
21103;SDS011;10710;53.398;-1.514;2023-06-19T14:12:27;5.18;;;2.60;;
21103;SDS011;10710;53.398;-1.514;2023-06-19T14:15:15;4.50;;;2.40;;
21103;SDS011;10710;53.398;-1.514;2023-06-19T14:18:02;6.88;;;2.63;;
21103;SDS011;10710;53.398;-1.514;2023-06-19T14:20:47;7.45;;;2.80;;
21103;SDS011;10710;53.398;-1.514;2023-06-19T14:23:32;3.25;;;1.92;;
21103;SDS011;10710;53.398;-1.514;2023-06-19T14:26:39;5.35;;;2.33;;
21103;SDS011;10710;53.398;-1.514;2023-06-19T14:29:34;8.00;;;2.92;;
21103;SDS011;10710;53.398;-1.514;2023-06-19T14:32:32;7.65;;;2.70;;
21103;SDS011;10710;53.398;-1.514;2023-06-19T14:36:00;4.20;;;2.28;;
21103;SDS011;10710;53.398;-1.514;2023-06-19T14:38:53;11.27;;;5.20;;
21103;SDS011;10710;53.398;-1.514;2023-06-19T14:44:57;4.75;;;2.20;;
21103;SDS011;10710;53.398;-1.514;2023-06-19T14:47:47;6.97;;;2.40;;
21103;SDS011;10710;53.398;-1.514;2023-06-19T14:50:32;6.15;;;2.60;;
21103;SDS011;10710;53.398;-1.514;2023-06-19T14:53:18;3.92;;;2.28;;
21103;SDS011;10710;53.398;-1.514;2023-06-19T14:56:10;3.33;;;1.90;;
21103;SDS011;10710;53.398;-1.514;2023-06-19T14:58:58;4.32;;;2.70;;
21103;SDS011;10710;53.398;-1.514;2023-06-19T15:01:43;6.10;;;2.00;;
21103;SDS011;10710;53.398;-1.514;2023-06-19T15:04:31;5.43;;;2.00;;
21103;SDS011;10710;53.398;-1.514;2023-06-19T15:07:16;2.75;;;1.80;;
21103;SDS011;10710;53.398;-1.514;2023-06-19T15:10:00;3.45;;;1.90;;
21103;SDS011;10710;53.398;-1.514;2023-06-19T15:12:44;3.70;;;1.52;;
21103;SDS011;10710;53.398;-1.514;2023-06-19T15:15:29;4.50;;;1.80;;
21103;SDS011;10710;53.398;-1.514;2023-06-19T15:18:13;3.30;;;1.77;;
21103;SDS011;10710;53.398;-1.514;2023-06-19T15:20:58;1.88;;;1.65;;
21103;SDS011;10710;53.398;-1.514;2023-06-19T15:23:42;2.95;;;1.90;;
21103;SDS011;10710;53.398;-1.514;2023-06-19T15:26:27;2.63;;;1.63;;
21103;SDS011;10710;53.398;-1.514;2023-06-19T15:29:11;2.47;;;1.83;;
21103;SDS011;10710;53.398;-1.514;2023-06-19T15:31:56;2.05;;;1.80;;
21103;SDS011;10710;53.398;-1.514;2023-06-19T15:34:40;3.58;;;1.58;;
21103;SDS011;10710;53.398;-1.514;2023-06-19T15:37:25;2.25;;;1.60;;
21103;SDS011;10710;53.398;-1.514;2023-06-19T15:40:09;1.65;;;1.48;;
21103;SDS011;10710;53.398;-1.514;2023-06-19T15:42:55;2.10;;;1.60;;
21103;SDS011;10710;53.398;-1.514;2023-06-19T15:45:39;8.23;;;5.05;;
21103;SDS011;10710;53.398;-1.514;2023-06-19T15:48:23;3.20;;;1.85;;
21103;SDS011;10710;53.398;-1.514;2023-06-19T15:51:08;2.60;;;1.70;;
21103;SDS011;10710;53.398;-1.514;2023-06-19T15:53:53;4.47;;;1.60;;
21103;SDS011;10710;53.398;-1.514;2023-06-19T15:56:38;2.50;;;1.83;;
21103;SDS011;10710;53.398;-1.514;2023-06-19T15:59:23;3.25;;;1.90;;
21103;SDS011;10710;53.398;-1.514;2023-06-19T16:02:07;2.30;;;1.70;;
21103;SDS011;10710;53.398;-1.514;2023-06-19T16:04:52;1.95;;;1.50;;
21103;SDS011;10710;53.398;-1.514;2023-06-19T16:07:36;2.00;;;1.70;;
21103;SDS011;10710;53.398;-1.514;2023-06-19T16:10:20;4.40;;;1.60;;
21103;SDS011;10710;53.398;-1.514;2023-06-19T16:13:05;2.30;;;1.60;;
21103;SDS011;10710;53.398;-1.514;2023-06-19T16:15:50;6.13;;;2.65;;
21103;SDS011;10710;53.398;-1.514;2023-06-19T16:18:35;2.50;;;1.73;;
21103;SDS011;10710;53.398;-1.514;2023-06-19T16:21:19;3.80;;;1.50;;
21103;SDS011;10710;53.398;-1.514;2023-06-19T16:24:04;1.90;;;1.60;;
21103;SDS011;10710;53.398;-1.514;2023-06-19T16:26:49;3.33;;;1.75;;
21103;SDS011;10710;53.398;-1.514;2023-06-19T16:29:34;2.63;;;1.58;;
21103;SDS011;10710;53.398;-1.514;2023-06-19T16:32:18;3.47;;;3.03;;
21103;SDS011;10710;53.398;-1.514;2023-06-19T16:35:03;2.00;;;1.60;;
21103;SDS011;10710;53.398;-1.514;2023-06-19T16:37:49;3.70;;;1.77;;
21103;SDS011;10710;53.398;-1.514;2023-06-19T16:40:37;2.33;;;1.70;;
21103;SDS011;10710;53.398;-1.514;2023-06-19T16:43:21;7.85;;;6.10;;
21103;SDS011;10710;53.398;-1.514;2023-06-19T16:46:06;3.67;;;2.10;;
21103;SDS011;10710;53.398;-1.514;2023-06-19T16:48:51;1.65;;;1.50;;
21103;SDS011;10710;53.398;-1.514;2023-06-19T16:51:35;2.47;;;1.50;;
21103;SDS011;10710;53.398;-1.514;2023-06-19T16:54:20;1.88;;;1.65;;
21103;SDS011;10710;53.398;-1.514;2023-06-19T16:57:04;3.85;;;2.00;;
21103;SDS011;10710;53.398;-1.514;2023-06-19T16:59:49;2.97;;;1.73;;
21103;SDS011;10710;53.398;-1.514;2023-06-19T17:02:33;2.83;;;1.73;;
21103;SDS011;10710;53.398;-1.514;2023-06-19T17:05:17;2.83;;;1.95;;
21103;SDS011;10710;53.398;-1.514;2023-06-19T17:08:02;5.93;;;1.60;;
21103;SDS011;10710;53.398;-1.514;2023-06-19T17:10:47;1.45;;;1.35;;
21103;SDS011;10710;53.398;-1.514;2023-06-19T17:13:32;3.70;;;1.50;;
21103;SDS011;10710;53.398;-1.514;2023-06-19T17:16:16;2.08;;;1.33;;
21103;SDS011;10710;53.398;-1.514;2023-06-19T17:19:00;1.50;;;1.20;;
21103;SDS011;10710;53.398;-1.514;2023-06-19T17:21:49;1.73;;;1.30;;
21103;SDS011;10710;53.398;-1.514;2023-06-19T17:24:33;3.40;;;1.52;;
21103;SDS011;10710;53.398;-1.514;2023-06-19T17:27:18;2.08;;;1.50;;
21103;SDS011;10710;53.398;-1.514;2023-06-19T17:30:03;1.90;;;1.30;;
21103;SDS011;10710;53.398;-1.514;2023-06-19T17:32:48;1.55;;;1.40;;